Time;durP1;ratioP1;P1;durP2;ratioP2;P2;SDS_P1;SDS_P2;PMS_P1;PMS_P2;Temp;Humidity;BMP_temperature;BMP_pressure;BME280_temperature;BME280_humidity;BME280_pressure;Samples;Min_cycle;Max_cycle;Signal;HPM_P1;HPM_P2
2022/08/12 00:44:57;;;;;;;;;;;25.40;64.90;;;;;;5015109;28;19905;-80
2022/08/12 00:47:23;;;;;;;;;;;25.40;64.90;;;;;;5014945;28;19913;-77
2022/08/12 00:49:49;;;;;;;;;;;25.40;65.00;;;;;;5014919;28;20269;-79
2022/08/12 00:52:15;;;;;;;;;;;25.40;65.30;;;;;;5014653;28;19918;-77
2022/08/12 00:54:44;;;;;;;;;;;25.40;65.20;;;;;;5014608;28;19952;-77
2022/08/12 00:57:09;;;;;;;;;;;25.40;65.00;;;;;;5014228;28;19951;-77
2022/08/12 00:59:36;;;;;;;;;;;25.40;65.00;;;;;;5014788;28;19944;-80
2022/08/12 01:02:03;;;;;;;;;;;25.40;65.10;;;;;;5014725;28;19905;-80
2022/08/12 01:12:43;;;;;;;;;;;25.40;65.40;;;;;;5014141;28;20411;-80
2022/08/12 01:15:10;;;;;;;;;;;25.30;65.20;;;;;;5013532;28;19949;-80
2022/08/12 01:17:37;;;;;;;;;;;25.30;65.30;;;;;;5014128;28;19917;-80
2022/08/12 01:20:04;;;;;;;;;;;25.30;65.30;;;;;;5014438;28;19905;-77
2022/08/12 01:22:40;;;;;;;;;;;25.40;65.50;;;;;;5013789;28;19951;-80
2022/08/12 01:25:08;;;;;;;;;;;25.30;65.70;;;;;;5013441;28;20014;-78
2022/08/12 01:27:36;;;;;;;;;;;25.20;65.60;;;;;;5013959;28;19921;-80
2022/08/12 01:30:04;;;;;;;;;;;25.20;65.70;;;;;;5012797;28;19906;-80
2022/08/12 01:32:33;;;;;;;;;;;25.20;65.80;;;;;;5014065;28;19964;-80
2022/08/12 01:35:02;;;;;;;;;;;25.20;65.80;;;;;;5013516;28;19912;-77
2022/08/12 01:37:29;;;;;;;;;;;25.10;65.80;;;;;;5012675;28;20390;-80
2022/08/12 01:39:57;;;;;;;;;;;25.00;65.70;;;;;;5014166;28;19910;-80
2022/08/12 01:42:24;;;;;;;;;;;25.00;66.00;;;;;;5013720;28;20009;-80
2022/08/12 01:44:52;;;;;;;;;;;25.00;66.10;;;;;;5013580;28;19952;-77
2022/08/12 01:47:29;;;;;;;;;;;25.00;66.10;;;;;;5013916;28;19909;-77
2022/08/12 01:49:55;;;;;;;;;;;24.90;66.20;;;;;;5013736;28;19905;-79
2022/08/12 01:52:43;;;;;;;;;;;24.80;66.40;;;;;;5013538;28;19917;-77
2022/08/12 01:55:10;;;;;;;;;;;24.80;66.60;;;;;;5010545;28;19905;-80
2022/08/12 01:57:43;;;;;;;;;;;24.70;66.70;;;;;;5013202;28;19985;-77
2022/08/12 02:00:13;;;;;;;;;;;24.60;66.80;;;;;;5013727;28;20384;-77
2022/08/12 02:02:43;;;;;;;;;;;24.60;67.00;;;;;;5013601;28;19905;-77
2022/08/12 02:11:16;;;;;;;;;;;24.30;67.30;;;;;;5013844;28;20020;-77
2022/08/12 02:13:42;;;;;;;;;;;24.30;67.30;;;;;;5013397;28;20020;-77
2022/08/12 02:16:12;;;;;;;;;;;24.20;67.80;;;;;;5013563;28;19945;-79
2022/08/12 02:18:58;;;;;;;;;;;24.10;67.70;;;;;;5013154;28;19905;-80
2022/08/12 02:21:37;;;;;;;;;;;24.10;67.90;;;;;;5006665;28;20382;-77
2022/08/12 02:24:05;;;;;;;;;;;24.00;68.00;;;;;;5016804;28;19906;-80
2022/08/12 02:26:32;;;;;;;;;;;24.00;68.10;;;;;;5017162;28;19909;-79
2022/08/12 02:28:58;;;;;;;;;;;24.00;68.30;;;;;;5017082;28;19928;-80
2022/08/12 02:31:26;;;;;;;;;;;23.90;68.20;;;;;;5017360;28;19955;-80
2022/08/12 02:33:51;;;;;;;;;;;23.90;69.00;;;;;;5017456;28;19909;-77
2022/08/12 02:36:17;;;;;;;;;;;23.80;68.60;;;;;;5016949;28;19905;-77
2022/08/12 02:38:43;;;;;;;;;;;23.80;68.60;;;;;;5017298;28;19913;-77
2022/08/12 02:41:10;;;;;;;;;;;23.70;68.80;;;;;;5016662;28;19909;-77
2022/08/12 02:43:39;;;;;;;;;;;23.70;68.80;;;;;;5017004;28;19915;-80
2022/08/12 02:46:05;;;;;;;;;;;23.60;69.00;;;;;;5017136;28;19948;-77
2022/08/12 02:48:33;;;;;;;;;;;23.60;69.10;;;;;;5016976;28;20426;-80
2022/08/12 02:51:06;;;;;;;;;;;23.60;69.20;;;;;;5017082;28;19905;-77
2022/08/12 02:53:33;;;;;;;;;;;23.50;69.40;;;;;;5016607;28;19922;-80
2022/08/12 02:56:01;;;;;;;;;;;23.50;69.60;;;;;;5016912;28;19906;-80
2022/08/12 02:58:27;;;;;;;;;;;23.40;69.80;;;;;;5016663;28;19905;-80
2022/08/12 03:00:53;;;;;;;;;;;23.30;69.80;;;;;;5016673;28;19948;-80
2022/08/12 03:03:20;;;;;;;;;;;23.30;70.10;;;;;;5017074;28;19952;-77
2022/08/12 03:05:47;;;;;;;;;;;23.20;70.50;;;;;;5016566;28;19951;-77
2022/08/12 03:08:17;;;;;;;;;;;23.10;70.40;;;;;;5007233;28;19909;-79
2022/08/12 03:10:44;;;;;;;;;;;23.10;70.50;;;;;;5014524;28;19940;-77
2022/08/12 03:13:11;;;;;;;;;;;23.00;70.70;;;;;;5016125;28;19951;-79
2022/08/12 03:15:36;;;;;;;;;;;23.00;70.70;;;;;;5016391;28;19924;-77
2022/08/12 03:18:13;;;;;;;;;;;23.00;70.90;;;;;;5016414;28;19921;-77
2022/08/12 03:20:41;;;;;;;;;;;22.90;70.90;;;;;;5015952;28;19905;-80
2022/08/12 03:23:12;;;;;;;;;;;22.80;71.10;;;;;;5016254;28;20271;-80
2022/08/12 03:25:38;;;;;;;;;;;22.90;71.20;;;;;;5015584;28;19912;-77
2022/08/12 03:28:05;;;;;;;;;;;22.70;71.30;;;;;;5015956;28;20293;-79
2022/08/12 03:30:31;;;;;;;;;;;22.70;71.60;;;;;;5016281;28;20360;-77
2022/08/12 03:32:57;;;;;;;;;;;22.70;71.80;;;;;;5016060;28;19906;-77
2022/08/12 03:35:29;;;;;;;;;;;22.60;71.60;;;;;;5015760;28;19912;-79
2022/08/12 03:37:58;;;;;;;;;;;22.60;71.90;;;;;;5014704;28;19999;-77
2022/08/12 04:02:27;;;;;;;;;;;22.30;72.50;;;;;;5015045;28;19917;-80
2022/08/12 04:04:53;;;;;;;;;;;22.30;72.40;;;;;;5015698;28;19951;-77
2022/08/12 04:07:20;;;;;;;;;;;22.30;72.40;;;;;;5015474;28;20000;-77
2022/08/12 04:09:45;;;;;;;;;;;22.30;72.60;;;;;;5015715;28;19988;-77
2022/08/12 04:14:57;;;;;;;;;;;22.20;72.70;;;;;;5014799;28;20360;-80
2022/08/12 04:17:23;;;;;;;;;;;22.20;72.80;;;;;;5015173;28;19909;-79
2022/08/12 04:19:49;;;;;;;;;;;22.20;72.80;;;;;;5014861;28;19996;-80
2022/08/12 04:22:15;;;;;;;;;;;22.20;72.80;;;;;;5015097;28;20470;-76
2022/08/12 04:24:42;;;;;;;;;;;22.10;72.80;;;;;;5015174;28;20272;-80
2022/08/12 04:27:09;;;;;;;;;;;22.10;73.00;;;;;;5014861;28;19910;-79
2022/08/12 04:29:36;;;;;;;;;;;22.10;72.90;;;;;;5013724;28;20039;-80
2022/08/12 04:32:01;;;;;;;;;;;22.10;73.00;;;;;;5015064;28;19913;-79
2022/08/12 04:34:27;;;;;;;;;;;22.10;73.10;;;;;;5014658;28;19905;-79
2022/08/12 04:36:53;;;;;;;;;;;22.00;73.10;;;;;;5014895;28;19992;-76
2022/08/12 04:39:20;;;;;;;;;;;22.00;73.50;;;;;;5015562;28;19949;-80
2022/08/12 04:41:45;;;;;;;;;;;21.90;73.30;;;;;;5013978;28;20336;-79
2022/08/12 04:44:10;;;;;;;;;;;21.90;73.40;;;;;;5012812;28;19906;-79
2022/08/12 04:46:36;;;;;;;;;;;21.80;73.80;;;;;;5008511;28;20008;-76
2022/08/12 04:49:03;;;;;;;;;;;21.80;73.80;;;;;;5014684;28;19910;-77
2022/08/12 04:51:29;;;;;;;;;;;21.80;74.10;;;;;;5014560;28;20303;-79
2022/08/12 04:53:55;;;;;;;;;;;21.70;74.10;;;;;;5014770;28;19959;-80
2022/08/12 04:56:20;;;;;;;;;;;21.70;74.20;;;;;;5014648;28;19909;-77
2022/08/12 04:58:46;;;;;;;;;;;21.70;74.30;;;;;;5014422;28;19955;-79
2022/08/12 05:01:12;;;;;;;;;;;21.70;74.50;;;;;;5014559;28;19905;-77
2022/08/12 05:03:37;;;;;;;;;;;21.60;74.40;;;;;;5014461;28;19912;-80
2022/08/12 05:06:03;;;;;;;;;;;21.60;74.40;;;;;;5014574;28;19949;-80
2022/08/12 05:08:29;;;;;;;;;;;21.70;74.60;;;;;;5014442;28;19913;-80
2022/08/12 05:10:55;;;;;;;;;;;21.70;74.60;;;;;;5014541;28;19912;-79
2022/08/12 05:13:22;;;;;;;;;;;21.70;74.50;;;;;;5014026;28;19937;-77
2022/08/12 05:15:48;;;;;;;;;;;21.60;74.60;;;;;;5014201;28;20284;-79
2022/08/12 05:18:14;;;;;;;;;;;21.60;74.50;;;;;;5012741;28;20346;-79
2022/08/12 05:20:43;;;;;;;;;;;21.60;74.70;;;;;;5014083;28;19951;-76
2022/08/12 05:23:09;;;;;;;;;;;21.60;74.70;;;;;;5014284;28;19905;-79
2022/08/12 05:25:35;;;;;;;;;;;21.70;74.80;;;;;;5013782;28;19905;-77
2022/08/12 05:28:01;;;;;;;;;;;21.70;74.80;;;;;;5013955;28;20375;-76
2022/08/12 05:30:27;;;;;;;;;;;21.70;74.60;;;;;;5014096;28;19928;-79
2022/08/12 05:32:56;;;;;;;;;;;21.70;74.80;;;;;;5013951;28;19905;-79
2022/08/12 05:35:21;;;;;;;;;;;21.70;74.60;;;;;;5013184;28;20395;-76
2022/08/12 05:37:47;;;;;;;;;;;21.70;74.70;;;;;;5011229;28;19910;-77
2022/08/12 05:40:12;;;;;;;;;;;21.80;74.90;;;;;;5013142;28;19963;-76
2022/08/12 05:42:38;;;;;;;;;;;21.90;74.70;;;;;;5013459;28;20328;-79
2022/08/12 05:45:04;;;;;;;;;;;21.90;74.50;;;;;;5012986;28;19906;-77
2022/08/12 05:47:30;;;;;;;;;;;21.90;74.30;;;;;;5006901;28;20050;-77
2022/08/12 05:49:55;;;;;;;;;;;22.00;74.50;;;;;;5012351;28;19996;-77
2022/08/12 05:52:21;;;;;;;;;;;22.00;74.40;;;;;;5013402;28;19917;-77
2022/08/12 05:54:46;;;;;;;;;;;22.00;74.10;;;;;;5012077;28;19909;-76
2022/08/12 05:57:12;;;;;;;;;;;22.10;74.10;;;;;;5012921;28;20299;-77
2022/08/12 05:59:38;;;;;;;;;;;22.10;74.20;;;;;;5013387;28;19905;-79
2022/08/12 06:02:06;;;;;;;;;;;22.20;74.10;;;;;;5013485;28;19905;-79
2022/08/12 06:04:32;;;;;;;;;;;22.30;73.90;;;;;;5013757;28;19949;-79
2022/08/12 06:06:58;;;;;;;;;;;22.40;73.60;;;;;;5013490;28;19965;-76
2022/08/12 06:09:25;;;;;;;;;;;22.50;73.70;;;;;;5013323;28;20427;-79
2022/08/12 06:11:50;;;;;;;;;;;22.60;73.40;;;;;;5012550;28;19906;-79
2022/08/12 06:14:16;;;;;;;;;;;22.60;73.40;;;;;;5012462;28;19956;-79
2022/08/12 06:16:45;;;;;;;;;;;22.70;73.30;;;;;;5013429;28;20289;-79
2022/08/12 06:19:10;;;;;;;;;;;22.80;73.40;;;;;;5014428;28;19906;-76
2022/08/12 06:21:39;;;;;;;;;;;22.90;73.30;;;;;;5020382;28;19916;-77
2022/08/12 06:24:04;;;;;;;;;;;22.90;73.10;;;;;;5006959;28;19916;-76
2022/08/12 06:26:30;;;;;;;;;;;23.00;73.10;;;;;;5014103;28;20296;-77
2022/08/12 06:28:59;;;;;;;;;;;23.10;72.80;;;;;;5024314;28;19964;-79
2022/08/12 06:31:25;;;;;;;;;;;23.20;72.70;;;;;;5015423;28;19960;-77
2022/08/12 06:33:52;;;;;;;;;;;23.30;72.40;;;;;;5006497;28;19917;-79
2022/08/12 06:36:18;;;;;;;;;;;23.40;72.20;;;;;;5011889;28;20395;-77
2022/08/12 06:38:45;;;;;;;;;;;23.50;72.10;;;;;;5019508;28;19920;-79
2022/08/12 06:43:55;;;;;;;;;;;23.70;71.60;;;;;;5021385;28;20292;-77
2022/08/12 06:46:21;;;;;;;;;;;23.80;71.30;;;;;;5012825;28;19914;-76
2022/08/12 06:48:48;;;;;;;;;;;23.90;71.20;;;;;;5001190;28;19917;-79
2022/08/12 06:51:14;;;;;;;;;;;24.00;71.10;;;;;;5009083;28;19971;-79
2022/08/12 06:53:41;;;;;;;;;;;24.10;71.00;;;;;;5005616;28;19960;-79
2022/08/12 06:56:08;;;;;;;;;;;24.20;70.90;;;;;;5006439;28;20004;-79
2022/08/12 06:58:37;;;;;;;;;;;24.30;70.60;;;;;;5007905;28;19929;-77
2022/08/12 07:01:03;;;;;;;;;;;24.50;70.50;;;;;;5012499;28;19916;-77
2022/08/12 07:03:29;;;;;;;;;;;24.60;70.30;;;;;;5010814;28;19913;-79
2022/08/12 07:05:55;;;;;;;;;;;24.80;70.00;;;;;;5009982;28;19913;-79
2022/08/12 07:08:22;;;;;;;;;;;24.90;69.80;;;;;;5014267;28;19937;-79
2022/08/12 07:10:57;;;;;;;;;;;25.00;69.50;;;;;;5014282;28;20365;-79
2022/08/12 07:13:42;;;;;;;;;;;25.20;69.50;;;;;;5010759;28;20265;-77
2022/08/12 07:16:09;;;;;;;;;;;25.30;69.40;;;;;;5014810;28;19995;-79
2022/08/12 07:18:34;;;;;;;;;;;25.50;69.10;;;;;;5011249;28;19924;-77
2022/08/12 07:21:01;;;;;;;;;;;25.70;68.90;;;;;;5011760;28;20292;-77
2022/08/12 07:23:27;;;;;;;;;;;25.80;68.70;;;;;;5013613;28;19924;-77
2022/08/12 07:25:53;;;;;;;;;;;26.00;68.60;;;;;;5011649;28;19913;-79
2022/08/12 07:28:23;;;;;;;;;;;26.10;68.20;;;;;;5014159;28;19913;-79
2022/08/12 07:30:53;;;;;;;;;;;26.30;67.70;;;;;;5019729;28;19909;-79
2022/08/12 07:33:21;;;;;;;;;;;26.40;67.90;;;;;;5013949;28;20051;-79
2022/08/12 07:35:47;;;;;;;;;;;26.60;67.70;;;;;;5014341;28;19920;-77
2022/08/12 07:38:25;;;;;;;;;;;26.80;67.70;;;;;;5018731;28;20304;-77
2022/08/12 07:40:52;;;;;;;;;;;26.90;67.60;;;;;;5018380;28;20007;-79
2022/08/12 07:43:17;;;;;;;;;;;27.20;66.50;;;;;;5015930;28;19912;-79
2022/08/12 07:45:44;;;;;;;;;;;27.30;66.70;;;;;;5012169;28;20356;-79
2022/08/12 07:48:09;;;;;;;;;;;27.60;66.60;;;;;;5017282;28;19924;-77
2022/08/12 07:50:35;;;;;;;;;;;27.80;66.40;;;;;;5002607;28;19909;-77
2022/08/12 07:53:01;;;;;;;;;;;28.00;65.30;;;;;;5002585;28;20398;-79
2022/08/12 07:55:27;;;;;;;;;;;28.30;65.00;;;;;;5010989;28;19913;-79
2022/08/12 07:57:58;;;;;;;;;;;28.60;64.90;;;;;;5005187;28;19916;-80
2022/08/12 08:00:24;;;;;;;;;;;29.70;63.90;;;;;;5010661;28;19917;-78
2022/08/12 08:02:52;;;;;;;;;;;32.10;61.00;;;;;;5011289;28;19909;-78
2022/08/12 08:05:18;;;;;;;;;;;33.80;59.20;;;;;;5013622;28;19963;-78
2022/08/12 08:07:43;;;;;;;;;;;35.10;57.90;;;;;;5010020;28;19920;-77
2022/08/12 08:10:10;;;;;;;;;;;35.80;57.50;;;;;;5010263;28;19913;-75
2022/08/12 08:15:23;;;;;;;;;;;36.80;56.30;;;;;;5013519;28;19971;-75
2022/08/12 08:17:58;;;;;;;;;;;36.80;56.20;;;;;;5012704;28;19919;-77
2022/08/12 08:20:27;;;;;;;;;;;37.00;55.70;;;;;;5008231;28;19920;-75
2022/08/12 08:22:57;;;;;;;;;;;38.00;55.40;;;;;;5010807;28;19916;-77
2022/08/12 08:25:29;;;;;;;;;;;38.40;55.10;;;;;;5011568;28;19920;-78
2022/08/12 08:27:56;;;;;;;;;;;38.80;55.10;;;;;;5010989;28;19914;-77
2022/08/12 08:30:22;;;;;;;;;;;38.80;54.70;;;;;;5008716;28;19909;-75
2022/08/12 08:32:48;;;;;;;;;;;38.80;54.70;;;;;;5006692;28;19918;-77
2022/08/12 08:35:14;;;;;;;;;;;39.10;54.60;;;;;;5011706;28;19940;-78
2022/08/12 08:37:42;;;;;;;;;;;39.40;54.50;;;;;;5013845;28;19975;-77
2022/08/12 08:42:52;;;;;;;;;;;39.80;54.20;;;;;;5012449;28;19920;-76
2022/08/12 08:45:17;;;;;;;;;;;40.00;53.90;;;;;;5013494;28;19910;-76
2022/08/12 08:47:43;;;;;;;;;;;40.50;54.00;;;;;;5016493;28;19922;-78
2022/08/12 08:50:09;;;;;;;;;;;41.10;54.00;;;;;;5012342;28;19913;-78
2022/08/12 08:52:36;;;;;;;;;;;41.10;53.40;;;;;;5004528;28;19921;-76
2022/08/12 08:55:02;;;;;;;;;;;40.80;53.10;;;;;;5013570;28;19909;-75
2022/08/12 08:57:27;;;;;;;;;;;41.40;53.20;;;;;;5012077;28;19956;-76
2022/08/12 08:59:53;;;;;;;;;;;41.70;53.40;;;;;;5012222;28;19913;-78
2022/08/12 09:02:18;;;;;;;;;;;41.90;52.90;;;;;;5011743;28;20286;-76
2022/08/12 09:04:44;;;;;;;;;;;42.00;53.00;;;;;;5008755;28;19916;-78
2022/08/12 09:07:11;;;;;;;;;;;42.50;53.00;;;;;;5015953;28;20012;-78
2022/08/12 09:09:37;;;;;;;;;;;42.40;52.50;;;;;;5011765;28;19913;-78
2022/08/12 09:14:47;;;;;;;;;;;43.10;52.40;;;;;;5010278;28;20412;-78
2022/08/12 09:17:13;;;;;;;;;;;43.50;52.00;;;;;;5019733;28;19925;-78
2022/08/12 09:19:39;;;;;;;;;;;43.40;52.00;;;;;;5013217;28;19988;-76
2022/08/12 09:22:07;;;;;;;;;;;43.40;52.00;;;;;;5010277;28;19909;-75
2022/08/12 09:24:33;;;;;;;;;;;42.90;51.90;;;;;;5011972;28;19917;-78
2022/08/12 09:26:58;;;;;;;;;;;43.20;51.80;;;;;;5009994;28;19913;-78
2022/08/12 09:29:24;;;;;;;;;;;43.70;52.00;;;;;;5003996;28;19917;-78
2022/08/12 09:31:52;;;;;;;;;;;43.70;51.50;;;;;;5010567;28;19918;-78
2022/08/12 09:34:18;;;;;;;;;;;43.40;51.40;;;;;;5007396;28;19921;-78
2022/08/12 09:36:43;;;;;;;;;;;43.80;51.00;;;;;;5009487;28;20295;-78
2022/08/12 09:39:09;;;;;;;;;;;44.10;51.20;;;;;;5013863;28;20279;-79
2022/08/12 09:41:41;;;;;;;;;;;43.90;50.60;;;;;;5012494;28;20445;-78
2022/08/12 09:46:51;;;;;;;;;;;44.60;50.80;;;;;;5011706;28;19982;-76
2022/08/12 09:49:16;;;;;;;;;;;44.30;50.90;;;;;;5015506;28;20345;-77
2022/08/12 09:51:42;;;;;;;;;;;44.50;50.80;;;;;;5010919;28;20368;-76
2022/08/12 09:54:11;;;;;;;;;;;44.50;50.90;;;;;;5014723;28;20419;-78
2022/08/12 09:56:40;;;;;;;;;;;44.80;50.10;;;;;;5012320;28;19966;-79
2022/08/12 09:59:08;;;;;;;;;;;44.50;50.30;;;;;;5015042;28;19928;-75
2022/08/12 10:01:37;;;;;;;;;;;43.90;49.70;;;;;;5016194;28;19905;-75
2022/08/12 10:04:08;;;;;;;;;;;43.90;49.90;;;;;;5013976;28;19935;-76
2022/08/12 10:06:34;;;;;;;;;;;44.70;49.70;;;;;;5013700;28;19931;-78
2022/08/12 10:08:59;;;;;;;;;;;44.60;49.40;;;;;;5014154;28;20288;-76
2022/08/12 10:14:09;;;;;;;;;;;44.80;49.40;;;;;;5013616;28;20295;-76
2022/08/12 10:16:42;;;;;;;;;;;45.00;49.70;;;;;;5017203;28;19912;-78
2022/08/12 10:19:08;;;;;;;;;;;44.60;49.00;;;;;;5013969;28;19912;-76
2022/08/12 10:21:35;;;;;;;;;;;44.60;49.60;;;;;;5019440;28;19913;-78
2022/08/12 10:24:08;;;;;;;;;;;44.60;49.80;;;;;;5013220;28;19910;-78
2022/08/12 10:32:03;;;;;;;;;;;44.60;49.20;;;;;;5007184;28;19924;-77
2022/08/12 10:34:29;;;;;;;;;;;44.60;49.50;;;;;;5005393;28;19913;-78
2022/08/12 10:36:57;;;;;;;;;;;44.60;49.50;;;;;;5012023;28;20047;-78
2022/08/12 10:39:24;;;;;;;;;;;43.80;49.00;;;;;;5015522;28;19920;-75
2022/08/12 10:44:35;;;;;;;;;;;44.40;49.00;;;;;;5011063;28;19928;-77
2022/08/12 10:47:01;;;;;;;;;;;44.20;49.20;;;;;;5014585;28;20459;-78
2022/08/12 10:49:30;;;;;;;;;;;44.00;49.40;;;;;;5015218;28;19913;-77
2022/08/12 10:51:56;;;;;;;;;;;43.90;49.80;;;;;;5020508;28;19918;-76
2022/08/12 10:54:26;;;;;;;;;;;44.30;49.10;;;;;;5021129;28;19920;-78
2022/08/12 10:56:52;;;;;;;;;;;44.00;49.20;;;;;;5008560;28;20327;-78
2022/08/12 10:59:20;;;;;;;;;;;43.70;49.60;;;;;;5014464;28;19909;-76
2022/08/12 11:01:46;;;;;;;;;;;44.00;49.10;;;;;;5015965;28;20369;-76
2022/08/12 11:04:12;;;;;;;;;;;44.50;49.10;;;;;;5021180;28;20039;-76
2022/08/12 11:06:47;;;;;;;;;;;44.70;49.70;;;;;;5018491;28;19937;-76
2022/08/12 11:09:17;;;;;;;;;;;44.70;49.30;;;;;;5019017;28;20016;-76
2022/08/12 11:11:43;;;;;;;;;;;44.30;48.90;;;;;;5023312;28;20376;-77
2022/08/12 11:14:09;;;;;;;;;;;43.60;48.70;;;;;;5016672;28;20372;-76
2022/08/12 11:16:34;;;;;;;;;;;43.40;49.20;;;;;;5023459;28;19905;-76
2022/08/12 11:19:00;;;;;;;;;;;43.70;49.70;;;;;;5029435;28;19995;-76
2022/08/12 11:21:25;;;;;;;;;;;43.80;49.30;;;;;;5027377;28;20363;-77
2022/08/12 11:23:51;;;;;;;;;;;43.50;49.70;;;;;;5013716;28;19909;-78
2022/08/12 11:26:16;;;;;;;;;;;43.20;49.60;;;;;;5015067;28;20414;-77
2022/08/12 11:28:42;;;;;;;;;;;42.60;49.70;;;;;;5017328;28;19963;-76
2022/08/12 11:31:08;;;;;;;;;;;42.00;49.70;;;;;;5013311;28;19909;-75
2022/08/12 11:33:34;;;;;;;;;;;41.70;50.40;;;;;;5013839;28;19919;-75
2022/08/12 11:36:04;;;;;;;;;;;41.40;50.40;;;;;;5012589;28;20411;-77
2022/08/12 11:38:29;;;;;;;;;;;41.00;51.10;;;;;;5015102;28;20423;-76
2022/08/12 11:40:55;;;;;;;;;;;41.10;51.00;;;;;;5013156;28;20348;-76
2022/08/12 11:43:20;;;;;;;;;;;40.90;50.60;;;;;;5014220;28;19963;-75
2022/08/12 11:45:46;;;;;;;;;;;41.30;50.70;;;;;;5015066;28;19979;-75
2022/08/12 11:48:12;;;;;;;;;;;41.60;50.80;;;;;;5018390;28;19913;-77
2022/08/12 11:50:37;;;;;;;;;;;41.20;50.90;;;;;;5007512;28;19910;-77
2022/08/12 11:53:03;;;;;;;;;;;40.60;51.10;;;;;;5014820;28;19917;-76
2022/08/12 11:55:28;;;;;;;;;;;40.60;51.20;;;;;;5018863;28;20360;-75
2022/08/12 11:57:54;;;;;;;;;;;40.60;50.50;;;;;;5012824;28;19944;-75
2022/08/12 12:00:21;;;;;;;;;;;40.60;50.30;;;;;;5012428;28;19914;-77
2022/08/12 12:02:46;;;;;;;;;;;40.30;50.60;;;;;;5020618;28;20295;-77
2022/08/12 12:05:14;;;;;;;;;;;39.90;51.10;;;;;;5017981;28;20000;-75
2022/08/12 12:07:40;;;;;;;;;;;40.10;50.90;;;;;;5015502;28;20330;-75
2022/08/12 12:10:06;;;;;;;;;;;40.00;51.20;;;;;;5013466;28;19920;-75
2022/08/12 12:12:32;;;;;;;;;;;40.10;51.10;;;;;;5018347;28;19910;-77
2022/08/12 12:14:57;;;;;;;;;;;39.70;50.50;;;;;;5017945;28;20004;-77
2022/08/12 12:17:23;;;;;;;;;;;39.70;51.40;;;;;;5024379;28;19967;-76
2022/08/12 12:19:49;;;;;;;;;;;39.80;51.60;;;;;;5021419;28;19996;-76
2022/08/12 12:22:15;;;;;;;;;;;39.90;51.40;;;;;;5012291;28;20359;-77
2022/08/12 12:24:44;;;;;;;;;;;40.20;51.50;;;;;;5014436;28;19936;-76
2022/08/12 12:27:09;;;;;;;;;;;40.40;51.10;;;;;;5015349;28;19955;-77
2022/08/12 12:29:35;;;;;;;;;;;40.40;50.80;;;;;;5013245;28;19909;-78
2022/08/12 12:32:00;;;;;;;;;;;40.60;51.40;;;;;;5013801;28;19968;-78
2022/08/12 12:34:26;;;;;;;;;;;40.40;50.50;;;;;;5012213;28;20634;-76
2022/08/12 12:36:51;;;;;;;;;;;40.40;51.20;;;;;;5012949;28;19913;-78
2022/08/12 12:39:17;;;;;;;;;;;40.00;51.00;;;;;;5019871;28;20322;-79
2022/08/12 12:41:42;;;;;;;;;;;39.80;51.10;;;;;;5012051;28;20406;-78
2022/08/12 12:44:08;;;;;;;;;;;39.90;51.20;;;;;;5012273;28;20419;-78
2022/08/12 12:46:33;;;;;;;;;;;39.80;50.80;;;;;;5012262;28;19921;-78
2022/08/12 12:48:59;;;;;;;;;;;39.70;51.10;;;;;;5017976;28;20412;-76
2022/08/12 12:51:24;;;;;;;;;;;39.90;51.00;;;;;;5011363;28;19944;-78
2022/08/12 12:53:50;;;;;;;;;;;39.70;50.60;;;;;;5014688;28;19968;-78
2022/08/12 12:56:19;;;;;;;;;;;39.10;50.80;;;;;;5013946;28;19917;-78
2022/08/12 12:58:48;;;;;;;;;;;38.50;51.30;;;;;;5005632;28;19920;-77
2022/08/12 13:01:15;;;;;;;;;;;38.50;51.40;;;;;;5012124;28;20358;-78
2022/08/12 13:03:41;;;;;;;;;;;39.20;51.40;;;;;;5008819;28;19913;-75
2022/08/12 13:06:07;;;;;;;;;;;39.60;52.10;;;;;;5009884;28;20288;-78
2022/08/12 13:08:33;;;;;;;;;;;40.00;51.50;;;;;;5011627;28;19917;-78
2022/08/12 13:11:00;;;;;;;;;;;40.20;51.30;;;;;;5013177;28;19909;-78
2022/08/12 13:13:28;;;;;;;;;;;40.30;51.30;;;;;;5008376;28;20366;-76
2022/08/12 13:15:55;;;;;;;;;;;40.70;50.70;;;;;;5013100;28;19913;-77
2022/08/12 13:18:21;;;;;;;;;;;41.00;50.80;;;;;;5010668;28;19916;-77
2022/08/12 13:20:47;;;;;;;;;;;40.30;50.90;;;;;;5008844;28;19914;-78
2022/08/12 13:23:14;;;;;;;;;;;40.00;51.00;;;;;;5010260;28;19964;-78
2022/08/12 13:25:40;;;;;;;;;;;39.80;51.00;;;;;;5011185;28;19967;-78
2022/08/12 13:28:07;;;;;;;;;;;39.60;51.20;;;;;;5009610;28;19913;-76
2022/08/12 13:30:34;;;;;;;;;;;40.00;51.80;;;;;;5010831;28;19913;-77
2022/08/12 13:33:00;;;;;;;;;;;40.30;51.20;;;;;;5011203;28;19910;-78
2022/08/12 13:35:28;;;;;;;;;;;40.30;51.50;;;;;;5011146;28;20032;-78
2022/08/12 13:37:55;;;;;;;;;;;40.10;50.60;;;;;;5011011;28;20008;-78
2022/08/12 13:40:21;;;;;;;;;;;40.00;51.30;;;;;;5009058;28;19914;-75
2022/08/12 13:42:47;;;;;;;;;;;40.00;51.10;;;;;;5009770;28;19913;-76
2022/08/12 13:45:14;;;;;;;;;;;40.10;50.70;;;;;;5010513;28;19909;-78
2022/08/12 13:47:56;;;;;;;;;;;40.10;51.00;;;;;;5010834;28;19913;-78
2022/08/12 13:50:28;;;;;;;;;;;40.10;51.30;;;;;;5006762;28;19920;-78
2022/08/12 13:52:54;;;;;;;;;;;40.30;51.40;;;;;;4971724;28;1116578;-76
2022/08/12 13:55:24;;;;;;;;;;;39.90;51.00;;;;;;5011620;28;20439;-78
2022/08/12 13:57:50;;;;;;;;;;;40.20;50.80;;;;;;5008816;28;20403;-78
2022/08/12 14:00:15;;;;;;;;;;;40.60;50.70;;;;;;5010019;28;19913;-78
2022/08/12 14:02:41;;;;;;;;;;;40.90;50.70;;;;;;5011564;28;20365;-78
2022/08/12 14:05:08;;;;;;;;;;;41.10;50.70;;;;;;5010745;28;19914;-76
2022/08/12 14:07:50;;;;;;;;;;;41.00;50.20;;;;;;5011891;28;19909;-75
2022/08/12 14:10:35;;;;;;;;;;;40.70;50.30;;;;;;5012062;28;19916;-78
2022/08/12 14:13:11;;;;;;;;;;;40.10;50.50;;;;;;5005192;28;19932;-78
2022/08/12 14:15:38;;;;;;;;;;;40.00;51.30;;;;;;5011900;28;20335;-78
2022/08/12 14:18:04;;;;;;;;;;;40.60;51.50;;;;;;5015790;28;20304;-78
2022/08/12 14:20:30;;;;;;;;;;;40.70;51.10;;;;;;5011708;28;19909;-78
2022/08/12 14:22:58;;;;;;;;;;;40.60;50.50;;;;;;5012612;28;20339;-76
2022/08/12 14:25:25;;;;;;;;;;;40.30;50.90;;;;;;5011038;28;20373;-77
2022/08/12 14:27:54;;;;;;;;;;;40.60;50.80;;;;;;5012102;28;19950;-78
2022/08/12 14:30:20;;;;;;;;;;;41.20;50.30;;;;;;5011897;28;19963;-78
2022/08/12 14:32:45;;;;;;;;;;;42.30;50.70;;;;;;5010664;28;19910;-76
2022/08/12 14:35:11;;;;;;;;;;;43.00;49.60;;;;;;5011887;28;19916;-76
2022/08/12 14:37:37;;;;;;;;;;;43.20;49.40;;;;;;5012221;28;20458;-79
2022/08/12 14:40:03;;;;;;;;;;;44.00;49.60;;;;;;5012265;28;19918;-79
2022/08/12 14:42:29;;;;;;;;;;;44.50;49.60;;;;;;5008518;28;19964;-79
2022/08/12 14:44:56;;;;;;;;;;;44.50;48.90;;;;;;5011991;28;20386;-77
2022/08/12 14:47:22;;;;;;;;;;;44.70;49.50;;;;;;5012160;28;19936;-79
2022/08/12 14:49:48;;;;;;;;;;;44.40;48.80;;;;;;5012159;28;19914;-79
2022/08/12 14:52:13;;;;;;;;;;;44.10;48.80;;;;;;5011268;28;19918;-78
2022/08/12 14:54:39;;;;;;;;;;;44.10;49.10;;;;;;5011427;28;19909;-79
2022/08/12 14:57:05;;;;;;;;;;;43.90;49.10;;;;;;5010674;28;20377;-76
2022/08/12 15:02:18;;;;;;;;;;;44.10;49.60;;;;;;5010854;28;19916;-79
2022/08/12 15:04:43;;;;;;;;;;;44.20;49.30;;;;;;5009610;28;19912;-79
2022/08/12 15:07:13;;;;;;;;;;;44.00;48.90;;;;;;5012075;28;19909;-79
2022/08/12 15:09:38;;;;;;;;;;;44.10;49.40;;;;;;5011780;28;19912;-77
2022/08/12 15:12:11;;;;;;;;;;;44.50;49.20;;;;;;5010414;28;19909;-79
2022/08/12 15:14:38;;;;;;;;;;;44.40;49.40;;;;;;5007299;28;19984;-79
2022/08/12 15:17:05;;;;;;;;;;;43.40;49.20;;;;;;5012571;28;19909;-78
2022/08/12 15:19:31;;;;;;;;;;;43.00;49.30;;;;;;5009522;28;19933;-79
2022/08/12 15:21:57;;;;;;;;;;;43.60;49.90;;;;;;5011645;28;20380;-79
2022/08/12 15:24:22;;;;;;;;;;;43.50;49.30;;;;;;5011721;28;19948;-76
2022/08/12 15:26:48;;;;;;;;;;;43.90;49.90;;;;;;5013302;28;19909;-76
2022/08/12 15:29:13;;;;;;;;;;;43.50;49.20;;;;;;5016268;28;19921;-78
2022/08/12 15:31:39;;;;;;;;;;;43.20;49.60;;;;;;5015516;28;19913;-79
2022/08/12 15:34:05;;;;;;;;;;;43.80;50.40;;;;;;5015732;28;19905;-79
2022/08/12 15:36:30;;;;;;;;;;;43.70;49.20;;;;;;5018350;28;19945;-76
2022/08/12 15:38:56;;;;;;;;;;;43.30;49.30;;;;;;5015995;28;19968;-76
2022/08/12 15:41:23;;;;;;;;;;;42.90;49.60;;;;;;5013168;28;19937;-79
2022/08/12 15:43:49;;;;;;;;;;;42.20;49.70;;;;;;5015532;28;20349;-76
2022/08/12 15:46:14;;;;;;;;;;;41.50;50.30;;;;;;5020509;28;19912;-79
2022/08/12 15:48:42;;;;;;;;;;;41.00;50.40;;;;;;5020465;28;20331;-79
2022/08/12 15:51:07;;;;;;;;;;;40.80;50.50;;;;;;5015710;28;20356;-76
2022/08/12 15:56:16;;;;;;;;;;;40.90;51.40;;;;;;5013624;28;19916;-79
2022/08/12 15:58:42;;;;;;;;;;;40.90;50.80;;;;;;5014731;28;20284;-76
2022/08/12 16:01:14;;;;;;;;;;;40.80;50.80;;;;;;5015641;28;19906;-79
2022/08/12 16:03:42;;;;;;;;;;;40.70;50.90;;;;;;5015095;28;19906;-76
2022/08/12 16:06:08;;;;;;;;;;;40.50;50.90;;;;;;5015548;28;20322;-78
2022/08/12 16:08:35;;;;;;;;;;;40.50;51.30;;;;;;5014446;28;19991;-79